Time;durP1;ratioP1;P1;durP2;ratioP2;P2;SDS_P1;SDS_P2;PMS_P1;PMS_P2;Temp;Humidity;BMP_temperature;BMP_pressure;BME280_temperature;BME280_humidity;BME280_pressure;Samples;Min_cycle;Max_cycle;Signal;HPM_P1;HPM_P2
2023/04/12 00:00:35;;;;;;;11.82;3.70;;;7.80;81.60;;;;;;5095050;28;20058;-83
2023/04/12 00:03:06;;;;;;;11.30;2.85;;;7.90;81.50;;;;;;5095059;28;20036;-83
2023/04/12 00:05:33;;;;;;;9.25;3.20;;;7.90;81.80;;;;;;5112154;28;20057;-82
2023/04/12 00:08:03;;;;;;;6.13;2.80;;;7.90;82.20;;;;;;5112297;28;20048;-83
2023/04/12 00:10:29;;;;;;;10.27;3.47;;;8.00;81.80;;;;;;5100800;28;20066;-80
2023/04/12 00:12:55;;;;;;;8.57;3.30;;;8.00;82.30;;;;;;5075011;28;20044;-81
2023/04/12 00:15:21;;;;;;;13.90;3.10;;;8.10;82.40;;;;;;5074610;28;20492;-81
2023/04/12 00:17:46;;;;;;;8.82;3.30;;;8.20;82.50;;;;;;5074651;28;20036;-81
2023/04/12 00:20:15;;;;;;;8.80;3.58;;;8.30;82.80;;;;;;5057848;28;20051;-81
2023/04/12 00:22:41;;;;;;;14.57;4.03;;;8.30;82.90;;;;;;5092030;28;20473;-81
2023/04/12 00:25:08;;;;;;;10.30;3.08;;;8.30;83.00;;;;;;5095436;28;20485;-81
2023/04/12 00:27:34;;;;;;;9.32;3.55;;;8.40;83.80;;;;;;5095121;28;20040;-81
2023/04/12 00:30:00;;;;;;;8.18;3.20;;;8.40;83.40;;;;;;5078726;28;20035;-81
2023/04/12 00:32:26;;;;;;;9.75;3.70;;;8.40;84.40;;;;;;5078511;28;20511;-81
2023/04/12 00:34:51;;;;;;;10.73;3.83;;;8.40;85.10;;;;;;5095325;28;20040;-81
2023/04/12 00:37:17;;;;;;;11.25;3.72;;;8.40;84.60;;;;;;5078451;28;20036;-81
2023/04/12 00:39:43;;;;;;;8.43;3.03;;;8.50;85.60;;;;;;5095262;28;20035;-81
2023/04/12 00:42:08;;;;;;;5.80;3.35;;;8.40;86.30;;;;;;5094439;28;20417;-81
2023/04/12 00:44:34;;;;;;;9.00;3.42;;;8.40;86.00;;;;;;5078638;28;20047;-81
2023/04/12 00:47:02;;;;;;;10.50;2.80;;;8.40;86.80;;;;;;5095382;28;20036;-81
2023/04/12 00:49:29;;;;;;;9.95;3.08;;;8.40;87.70;;;;;;5094970;28;20044;-81
2023/04/12 00:52:07;;;;;;;9.25;3.35;;;8.40;87.80;;;;;;5061685;28;20122;-81
2023/04/12 00:54:33;;;;;;;11.73;4.10;;;8.40;87.60;;;;;;5095394;28;20403;-81
2023/04/12 00:57:00;;;;;;;10.85;3.33;;;8.40;87.30;;;;;;5094112;28;20480;-82
2023/04/12 00:59:26;;;;;;;7.75;3.95;;;8.30;87.60;;;;;;5074384;28;20044;-81
2023/04/12 01:01:55;;;;;;;8.30;4.22;;;8.30;87.90;;;;;;5074472;28;20135;-81
2023/04/12 01:04:21;;;;;;;9.57;3.13;;;8.30;88.30;;;;;;5074481;28;20037;-81
2023/04/12 01:07:04;;;;;;;14.95;3.70;;;8.30;88.20;;;;;;5074377;28;20488;-82
2023/04/12 01:09:42;;;;;;;9.13;3.25;;;8.30;88.40;;;;;;5083665;28;20109;-81
2023/04/12 01:12:15;;;;;;;7.07;3.33;;;8.20;88.20;;;;;;5094718;28;20048;-81
2023/04/12 01:14:56;;;;;;;10.50;3.45;;;8.30;88.80;;;;;;5106671;28;20043;-81
2023/04/12 01:17:26;;;;;;;10.90;4.07;;;8.20;89.00;;;;;;5097961;28;20047;-81
2023/04/12 01:19:59;;;;;;;7.93;3.20;;;8.20;89.60;;;;;;5115002;28;20043;-82
2023/04/12 01:22:36;;;;;;;12.18;3.47;;;8.20;89.00;;;;;;5098053;28;20383;-81
2023/04/12 01:25:28;;;;;;;8.73;3.75;;;8.20;89.90;;;;;;5115126;28;20501;-82
2023/04/12 01:27:58;;;;;;;13.27;3.38;;;8.20;89.70;;;;;;5115126;28;20062;-82
2023/04/12 01:30:27;;;;;;;5.13;2.70;;;8.20;89.80;;;;;;5114215;28;20150;-82
2023/04/12 01:32:55;;;;;;;7.20;2.75;;;8.20;89.70;;;;;;5114553;28;20128;-81
2023/04/12 01:35:25;;;;;;;12.15;3.25;;;8.20;89.70;;;;;;5113232;28;20124;-81
2023/04/12 01:37:51;;;;;;;8.80;2.75;;;8.20;89.60;;;;;;5114296;28;20388;-82
2023/04/12 01:40:18;;;;;;;9.82;3.63;;;8.20;90.10;;;;;;5097371;28;20567;-82
2023/04/12 01:42:44;;;;;;;8.13;2.50;;;8.20;90.10;;;;;;5114721;28;20391;-81
2023/04/12 01:45:10;;;;;;;6.00;2.50;;;8.20;89.70;;;;;;5097585;28;20036;-81
2023/04/12 01:47:37;;;;;;;7.65;2.53;;;8.20;89.90;;;;;;5080222;28;20039;-82
2023/04/12 01:50:24;;;;;;;8.05;2.60;;;8.20;90.00;;;;;;5114311;28;20046;-81
2023/04/12 01:53:07;;;;;;;11.13;2.20;;;8.10;89.90;;;;;;5114283;28;20039;-82
2023/04/12 01:55:36;;;;;;;7.95;2.60;;;8.10;90.40;;;;;;5097164;28;20043;-81
2023/04/12 01:58:03;;;;;;;6.57;2.30;;;8.20;90.60;;;;;;5113972;28;20036;-81
2023/04/12 02:00:31;;;;;;;6.30;2.35;;;8.20;90.20;;;;;;5113857;28;20079;-81
2023/04/12 02:02:58;;;;;;;8.50;2.83;;;8.20;90.70;;;;;;5081167;28;20036;-82
2023/04/12 02:05:24;;;;;;;6.47;2.40;;;8.20;90.70;;;;;;5093799;28;20040;-81
2023/04/12 02:07:50;;;;;;;6.55;2.60;;;8.20;90.70;;;;;;5093928;28;20388;-81
2023/04/12 02:10:28;;;;;;;9.10;2.90;;;8.20;90.00;;;;;;5043133;28;20060;-81
2023/04/12 02:12:54;;;;;;;4.47;2.22;;;8.20;90.30;;;;;;5093866;28;20090;-81
2023/04/12 02:15:20;;;;;;;11.75;2.15;;;8.20;90.20;;;;;;5076918;28;20508;-81
2023/04/12 02:17:46;;;;;;;4.53;2.03;;;8.20;90.10;;;;;;5104170;28;20096;-81
2023/04/12 02:20:12;;;;;;;5.82;3.55;;;8.20;90.30;;;;;;5096547;28;20048;-81
2023/04/12 02:22:38;;;;;;;6.57;2.10;;;8.20;90.30;;;;;;5096758;28;20043;-82
2023/04/12 02:25:05;;;;;;;3.90;1.75;;;8.10;90.10;;;;;;5113863;28;20036;-81
2023/04/12 02:27:31;;;;;;;11.43;2.17;;;8.20;90.30;;;;;;5080373;28;20066;-81
2023/04/12 02:29:57;;;;;;;5.55;2.08;;;8.20;90.70;;;;;;5113401;28;20507;-82
2023/04/12 02:32:23;;;;;;;5.22;2.20;;;8.10;90.60;;;;;;5113490;28;20079;-81
2023/04/12 02:34:50;;;;;;;7.90;2.72;;;8.20;90.50;;;;;;5079409;28;20027;-82
2023/04/12 02:37:20;;;;;;;7.35;2.60;;;8.10;90.80;;;;;;5113387;28;20035;-81
2023/04/12 02:39:46;;;;;;;7.93;2.40;;;8.20;91.10;;;;;;5097104;28;20568;-82
2023/04/12 02:42:12;;;;;;;5.93;2.33;;;8.20;91.20;;;;;;5096298;28;20407;-81
2023/04/12 02:44:38;;;;;;;5.50;2.28;;;8.20;91.00;;;;;;5096371;28;20040;-82
2023/04/12 02:47:04;;;;;;;5.15;2.10;;;8.10;91.30;;;;;;5112699;28;20035;-82
2023/04/12 02:49:29;;;;;;;5.13;2.47;;;8.10;91.60;;;;;;5092219;28;20032;-82
2023/04/12 02:51:58;;;;;;;4.50;1.85;;;8.10;91.50;;;;;;5094007;28;20036;-82
2023/04/12 02:54:24;;;;;;;7.28;2.47;;;8.10;90.80;;;;;;5076093;28;20044;-82
2023/04/12 02:56:49;;;;;;;6.20;2.88;;;8.20;90.80;;;;;;5076218;28;20127;-81
2023/04/12 02:59:15;;;;;;;7.18;2.58;;;8.20;91.20;;;;;;5075616;28;20549;-81
2023/04/12 03:01:45;;;;;;;7.57;2.40;;;8.20;91.20;;;;;;5059082;28;20097;-81
2023/04/12 03:04:11;;;;;;;9.35;3.25;;;8.10;91.10;;;;;;5075593;28;20028;-81
2023/04/12 03:06:39;;;;;;;6.30;2.72;;;8.10;91.80;;;;;;5092414;28;20511;-81
2023/04/12 03:09:05;;;;;;;8.52;2.50;;;8.20;91.80;;;;;;5075215;28;20485;-82
2023/04/12 03:11:31;;;;;;;10.95;3.40;;;8.10;91.70;;;;;;5092330;28;20051;-81
2023/04/12 03:13:56;;;;;;;9.02;3.33;;;8.20;91.50;;;;;;5058916;28;20040;-81
2023/04/12 03:16:28;;;;;;;8.05;2.30;;;8.10;91.70;;;;;;5075605;28;20050;-81
2023/04/12 03:18:55;;;;;;;8.20;2.55;;;8.10;91.60;;;;;;5093656;28;20044;-82
2023/04/12 03:21:21;;;;;;;7.80;2.60;;;8.20;92.00;;;;;;5095600;28;20055;-82
2023/04/12 03:29:00;;;;;;;7.05;3.03;;;8.10;92.10;;;;;;5041713;28;20041;-77
2023/04/12 03:31:26;;;;;;;5.90;2.10;;;8.10;91.80;;;;;;5035560;28;20207;-79
2023/04/12 03:33:52;;;;;;;7.55;2.40;;;8.10;92.40;;;;;;5018852;28;20288;-77
2023/04/12 03:36:20;;;;;;;5.10;2.25;;;8.10;92.30;;;;;;5002737;28;20051;-77
2023/04/12 03:38:46;;;;;;;5.28;2.80;;;8.10;92.20;;;;;;5018838;28;20442;-79
2023/04/12 03:41:12;;;;;;;5.05;1.88;;;8.10;92.40;;;;;;5019092;28;20040;-78
2023/04/12 03:43:37;;;;;;;7.35;2.97;;;8.10;92.30;;;;;;5035764;28;20098;-79
2023/04/12 03:46:04;;;;;;;6.25;2.10;;;8.10;92.60;;;;;;4987067;28;20041;-78
2023/04/12 03:48:30;;;;;;;10.45;3.20;;;8.10;92.70;;;;;;5003220;28;20048;-79
2023/04/12 03:50:58;;;;;;;6.53;3.20;;;8.00;93.00;;;;;;5036190;28;20044;-78
2023/04/12 03:53:26;;;;;;;8.48;3.17;;;8.10;93.00;;;;;;5019724;28;20484;-80
2023/04/12 03:55:51;;;;;;;7.40;3.25;;;8.00;93.20;;;;;;5019890;28;20124;-78
2023/04/12 03:58:19;;;;;;;7.70;3.20;;;8.00;92.90;;;;;;5002288;28;20132;-79
2023/04/12 04:00:45;;;;;;;8.82;3.20;;;8.00;92.60;;;;;;5019309;28;20317;-79
2023/04/12 04:03:11;;;;;;;11.32;4.50;;;8.00;93.30;;;;;;5036066;28;20044;-80
2023/04/12 04:05:37;;;;;;;7.50;3.65;;;8.00;93.80;;;;;;5019569;28;20145;-80
2023/04/12 04:08:05;;;;;;;10.02;4.03;;;7.90;93.40;;;;;;5002842;28;20128;-82
2023/04/12 04:10:31;;;;;;;8.15;3.25;;;7.90;93.70;;;;;;5003310;28;20041;-82
2023/04/12 04:12:57;;;;;;;7.38;3.50;;;7.90;93.60;;;;;;5019501;28;20041;-81
2023/04/12 04:15:26;;;;;;;5.88;3.35;;;7.90;94.10;;;;;;5035613;28;20052;-81
2023/04/12 04:17:52;;;;;;;11.45;3.78;;;7.90;94.30;;;;;;5002619;28;20044;-82
2023/04/12 04:20:19;;;;;;;9.38;3.08;;;7.80;94.10;;;;;;5018897;28;20090;-80
2023/04/12 04:22:47;;;;;;;7.82;3.53;;;7.90;94.10;;;;;;5018642;28;20053;-81
2023/04/12 04:25:13;;;;;;;7.43;3.10;;;7.80;94.50;;;;;;5002917;28;20041;-82
2023/04/12 04:27:43;;;;;;;6.75;3.20;;;7.80;94.30;;;;;;5019037;28;20052;-81
2023/04/12 04:30:10;;;;;;;10.45;3.13;;;7.80;94.40;;;;;;5019058;28;20048;-82
2023/04/12 04:32:37;;;;;;;5.63;2.70;;;7.80;94.50;;;;;;5019343;28;20045;-82
2023/04/12 04:35:03;;;;;;;8.05;3.15;;;7.80;94.30;;;;;;5002218;28;20044;-82
2023/04/12 04:37:30;;;;;;;6.35;2.83;;;7.80;94.40;;;;;;5002785;28;20123;-83
2023/04/12 04:39:56;;;;;;;8.45;3.60;;;7.80;94.40;;;;;;5018611;28;20047;-83
2023/04/12 04:42:23;;;;;;;9.02;2.75;;;7.80;94.70;;;;;;4986014;28;20033;-83
2023/04/12 04:44:59;;;;;;;9.18;3.13;;;7.80;95.10;;;;;;5002736;28;20154;-83
2023/04/12 04:47:24;;;;;;;7.38;2.97;;;7.70;95.00;;;;;;5018933;28;20041;-83
2023/04/12 04:49:50;;;;;;;7.88;2.42;;;7.70;94.80;;;;;;5035646;28;20044;-82
2023/04/12 04:52:17;;;;;;;5.13;2.60;;;7.70;95.00;;;;;;5002109;28;20047;-84
2023/04/12 04:54:43;;;;;;;7.32;2.50;;;7.70;95.00;;;;;;4986065;28;20132;-83
2023/04/12 04:57:10;;;;;;;10.77;4.10;;;7.70;95.20;;;;;;5002518;28;20125;-83
2023/04/12 04:59:36;;;;;;;7.05;3.00;;;7.70;95.20;;;;;;4986567;28;20045;-82
2023/04/12 05:02:02;;;;;;;7.13;3.25;;;7.70;95.20;;;;;;5018115;28;20083;-82
2023/04/12 05:04:28;;;;;;;7.30;2.75;;;7.70;95.40;;;;;;5017939;28;20068;-83
2023/04/12 05:06:53;;;;;;;10.43;4.28;;;7.70;94.90;;;;;;4985422;28;20033;-82
2023/04/12 05:09:20;;;;;;;7.18;3.92;;;7.70;95.30;;;;;;5003770;28;20119;-83
2023/04/12 05:11:46;;;;;;;7.97;3.95;;;7.70;95.10;;;;;;5005409;28;20491;-83
2023/04/12 05:14:12;;;;;;;5.20;3.17;;;7.70;94.90;;;;;;4988952;28;20045;-82
2023/04/12 05:16:37;;;;;;;8.13;4.00;;;7.70;94.60;;;;;;5021961;28;20037;-83
2023/04/12 05:19:03;;;;;;;7.78;3.15;;;7.70;95.10;;;;;;4989243;28;20081;-82
2023/04/12 05:21:30;;;;;;;5.68;3.20;;;7.60;95.20;;;;;;5005382;28;20045;-83
2023/04/12 05:23:55;;;;;;;8.93;4.03;;;7.70;95.40;;;;;;5021831;28;20053;-83
2023/04/12 05:26:21;;;;;;;6.88;3.60;;;7.70;95.00;;;;;;5006187;28;20036;-82
2023/04/12 05:28:47;;;;;;;5.55;3.35;;;7.70;95.40;;;;;;5005848;28;20491;-83
2023/04/12 05:31:12;;;;;;;10.55;4.40;;;7.70;95.30;;;;;;4989850;28;20044;-83
2023/04/12 05:33:38;;;;;;;7.80;4.15;;;7.60;95.40;;;;;;5005358;28;20476;-84
2023/04/12 05:36:04;;;;;;;9.32;4.28;;;7.70;95.30;;;;;;4989686;28;20047;-83
2023/04/12 05:38:30;;;;;;;6.95;4.47;;;7.60;95.50;;;;;;4989240;28;20037;-84
2023/04/12 05:40:56;;;;;;;6.80;4.40;;;7.70;95.60;;;;;;5021659;28;20041;-84
2023/04/12 05:43:22;;;;;;;7.30;4.40;;;7.70;95.50;;;;;;4989028;28;20567;-84
2023/04/12 05:45:49;;;;;;;6.70;4.30;;;7.70;95.50;;;;;;5037874;28;20037;-83
2023/04/12 05:48:15;;;;;;;6.82;5.55;;;7.70;95.30;;;;;;5021842;28;20080;-84
2023/04/12 05:50:50;;;;;;;7.30;4.88;;;7.70;95.30;;;;;;4989216;28;20463;-84
2023/04/12 05:53:15;;;;;;;8.95;5.38;;;7.80;95.10;;;;;;4986099;28;20053;-83
2023/04/12 05:55:41;;;;;;;6.03;5.07;;;7.70;95.20;;;;;;5002489;28;20045;-84
2023/04/12 05:58:10;;;;;;;10.57;5.32;;;7.80;95.00;;;;;;4986216;28;20072;-84
2023/04/12 06:00:37;;;;;;;7.85;6.20;;;7.70;95.50;;;;;;5002395;28;20038;-83
2023/04/12 06:03:06;;;;;;;11.10;6.57;;;7.70;95.40;;;;;;5002287;28;20050;-84
2023/04/12 06:05:35;;;;;;;9.30;6.53;;;7.70;95.50;;;;;;5002305;28;20038;-84
2023/04/12 06:08:03;;;;;;;8.35;5.82;;;7.70;95.80;;;;;;5002181;28;20077;-83
2023/04/12 06:10:32;;;;;;;8.45;6.10;;;7.70;95.30;;;;;;5002464;28;20046;-84
2023/04/12 06:12:58;;;;;;;10.95;6.22;;;7.70;95.50;;;;;;5002633;28;20045;-84
2023/04/12 06:15:24;;;;;;;8.23;5.97;;;7.70;95.80;;;;;;4986364;28;20396;-83
2023/04/12 06:17:50;;;;;;;10.30;6.82;;;7.70;95.90;;;;;;5001809;28;20512;-83
2023/04/12 06:20:16;;;;;;;8.25;6.10;;;7.70;95.90;;;;;;5001832;28;20091;-82
2023/04/12 06:22:42;;;;;;;10.50;7.43;;;7.70;95.70;;;;;;5018717;28;20053;-83
2023/04/12 06:25:11;;;;;;;8.13;6.35;;;7.70;95.60;;;;;;5002205;28;20033;-83
2023/04/12 06:27:36;;;;;;;10.15;7.50;;;7.70;95.80;;;;;;4985754;28;20076;-84
2023/04/12 06:30:05;;;;;;;11.23;7.38;;;7.70;95.90;;;;;;4986461;28;20048;-83
2023/04/12 06:32:31;;;;;;;9.85;7.72;;;7.70;95.90;;;;;;5001675;28;20037;-84
2023/04/12 06:34:57;;;;;;;10.48;8.55;;;7.80;95.90;;;;;;4985583;28;20037;-85
2023/04/12 06:37:23;;;;;;;10.90;8.07;;;7.80;95.90;;;;;;5002005;28;20076;-84
2023/04/12 06:39:48;;;;;;;11.20;8.13;;;7.80;96.10;;;;;;5001931;28;20464;-84
2023/04/12 06:42:15;;;;;;;8.73;7.50;;;7.70;96.20;;;;;;5001573;28;20072;-83
2023/04/12 06:44:40;;;;;;;8.88;6.43;;;7.70;96.10;;;;;;5001258;28;20073;-85
2023/04/12 06:47:06;;;;;;;8.88;7.45;;;7.80;96.00;;;;;;5001316;28;20120;-83
2023/04/12 06:49:32;;;;;;;12.57;8.07;;;7.80;96.00;;;;;;4984503;28;20045;-84
2023/04/12 06:52:00;;;;;;;8.10;6.13;;;7.70;96.30;;;;;;5001716;28;20103;-84
2023/04/12 06:54:25;;;;;;;9.70;6.25;;;7.80;96.20;;;;;;5017349;28;20049;-84
2023/04/12 06:56:51;;;;;;;7.55;5.75;;;7.80;96.20;;;;;;5000628;28;20452;-84
2023/04/12 06:59:17;;;;;;;9.05;5.93;;;7.80;96.20;;;;;;4968276;28;20068;-85
2023/04/12 07:01:42;;;;;;;9.23;6.32;;;7.80;95.90;;;;;;5000631;28;20098;-85
2023/04/12 07:04:08;;;;;;;6.75;5.68;;;7.80;96.00;;;;;;4984596;28;20033;-84
2023/04/12 07:06:34;;;;;;;8.15;5.78;;;7.80;96.10;;;;;;4984338;28;20041;-83
2023/04/12 07:09:00;;;;;;;6.72;5.78;;;7.80;96.10;;;;;;4984752;28;20041;-83
2023/04/12 07:11:27;;;;;;;7.05;5.93;;;7.80;96.20;;;;;;4984268;28;20088;-84
2023/04/12 07:13:52;;;;;;;6.80;5.43;;;7.80;96.40;;;;;;4984910;28;20412;-83
2023/04/12 07:16:18;;;;;;;7.57;4.80;;;7.80;96.50;;;;;;4985138;28;20042;-83
2023/04/12 07:18:44;;;;;;;5.30;3.97;;;7.80;96.60;;;;;;4968734;28;20041;-83
2023/04/12 07:21:13;;;;;;;7.75;5.50;;;7.90;96.60;;;;;;5001900;28;20429;-83
2023/04/12 07:23:42;;;;;;;6.53;4.07;;;7.90;96.70;;;;;;4985499;28;20045;-83
2023/04/12 07:26:08;;;;;;;6.35;5.03;;;7.90;96.60;;;;;;4969706;28;20069;-82
2023/04/12 07:28:35;;;;;;;7.13;5.85;;;7.90;96.60;;;;;;4984586;28;20064;-84
2023/04/12 07:31:04;;;;;;;6.65;5.05;;;7.90;96.60;;;;;;4969259;28;20551;-83
2023/04/12 07:33:30;;;;;;;6.75;5.05;;;7.90;96.50;;;;;;4984204;28;20051;-84
2023/04/12 07:35:56;;;;;;;6.47;4.35;;;7.90;96.70;;;;;;4984291;28;20436;-85
2023/04/12 07:38:22;;;;;;;8.27;4.88;;;7.90;96.70;;;;;;5016343;28;20079;-83
2023/04/12 07:40:50;;;;;;;6.30;4.40;;;7.90;96.80;;;;;;4968046;28;20051;-82
2023/04/12 07:43:16;;;;;;;7.35;4.28;;;8.00;96.80;;;;;;4984066;28;20037;-84
2023/04/12 07:45:41;;;;;;;7.55;4.88;;;8.00;96.80;;;;;;5000556;28;20049;-82
2023/04/12 07:48:07;;;;;;;5.95;4.50;;;8.00;96.80;;;;;;5000692;28;20045;-83
2023/04/12 07:50:33;;;;;;;6.32;4.32;;;8.00;97.00;;;;;;4984511;28;20041;-83
2023/04/12 07:53:25;;;;;;;4.50;3.60;;;8.00;96.90;;;;;;4968196;28;20037;-84
2023/04/12 07:55:51;;;;;;;7.75;4.20;;;8.10;96.90;;;;;;5000407;28;20041;-83
2023/04/12 07:58:18;;;;;;;10.88;4.30;;;8.10;96.90;;;;;;5016790;28;20044;-84
2023/04/12 08:00:47;;;;;;;7.65;5.97;;;8.10;96.90;;;;;;4983698;28;20042;-84
2023/04/12 08:03:14;;;;;;;6.18;4.60;;;8.10;96.80;;;;;;4967775;28;20041;-84
2023/04/12 08:05:41;;;;;;;6.82;5.13;;;8.10;97.00;;;;;;4984106;28;20037;-84
2023/04/12 08:08:10;;;;;;;6.45;4.47;;;8.10;96.90;;;;;;4998220;28;20037;-83
2023/04/12 08:10:37;;;;;;;7.03;4.85;;;8.10;96.90;;;;;;4982793;28;20452;-83
2023/04/12 08:13:14;;;;;;;8.80;4.93;;;8.10;97.20;;;;;;4998597;28;20124;-84
2023/04/12 08:15:47;;;;;;;8.38;6.10;;;8.10;96.90;;;;;;4967040;28;20496;-85
2023/04/12 08:18:13;;;;;;;8.95;5.82;;;8.10;97.10;;;;;;4999114;28;20049;-84
2023/04/12 08:20:39;;;;;;;6.63;5.10;;;8.10;97.20;;;;;;5015432;28;20048;-84
2023/04/12 08:23:06;;;;;;;6.70;4.82;;;8.10;97.20;;;;;;4999295;28;20045;-83
2023/04/12 08:25:32;;;;;;;8.40;5.05;;;8.10;97.20;;;;;;4966754;28;20041;-83
2023/04/12 08:27:58;;;;;;;6.88;5.35;;;8.20;97.30;;;;;;4999052;28;20084;-83
2023/04/12 08:30:25;;;;;;;8.90;5.07;;;8.20;97.30;;;;;;4966900;28;20049;-82
2023/04/12 08:32:52;;;;;;;5.22;3.70;;;8.20;97.40;;;;;;4983194;28;20045;-84
2023/04/12 08:35:18;;;;;;;7.75;3.65;;;8.30;97.30;;;;;;5015730;28;20052;-84
2023/04/12 08:37:44;;;;;;;10.10;3.83;;;8.40;97.40;;;;;;4999254;28;20401;-83
2023/04/12 08:40:10;;;;;;;8.95;4.57;;;8.50;97.20;;;;;;4983215;28;20037;-84
2023/04/12 08:42:37;;;;;;;8.65;5.72;;;8.60;97.20;;;;;;5015741;28;20048;-83
2023/04/12 08:45:11;;;;;;;9.00;5.53;;;8.80;97.10;;;;;;5027574;28;20032;-82
2023/04/12 08:47:42;;;;;;;9.77;4.85;;;9.00;97.30;;;;;;5028951;28;20036;-81
2023/04/12 08:50:15;;;;;;;9.27;4.05;;;9.00;97.00;;;;;;5046834;28;20041;-82
2023/04/12 08:52:42;;;;;;;7.27;3.67;;;9.10;96.80;;;;;;5043433;28;20041;-81
2023/04/12 08:55:09;;;;;;;9.60;5.05;;;9.30;96.60;;;;;;5043555;28;20040;-81
2023/04/12 08:57:35;;;;;;;8.38;3.75;;;9.30;96.30;;;;;;5022214;28;20173;-82
2023/04/12 09:00:02;;;;;;;10.70;3.42;;;9.40;96.20;;;;;;5023679;28;20404;-81
2023/04/12 09:02:28;;;;;;;12.02;3.22;;;9.40;95.50;;;;;;5022983;28;20487;-81
2023/04/12 09:04:57;;;;;;;13.70;3.05;;;9.50;95.40;;;;;;5022807;28;20044;-81
2023/04/12 09:07:26;;;;;;;12.52;3.30;;;9.60;95.00;;;;;;5006589;28;20041;-81
2023/04/12 09:09:52;;;;;;;14.57;3.22;;;9.70;94.40;;;;;;5022612;28;20545;-81
2023/04/12 09:12:21;;;;;;;12.07;3.97;;;9.80;93.20;;;;;;5006168;28;20041;-80
2023/04/12 09:14:46;;;;;;;14.70;3.63;;;9.90;93.80;;;;;;5022236;28;20044;-81
2023/04/12 09:17:27;;;;;;;8.82;2.53;;;10.00;93.30;;;;;;5038971;28;20048;-80
2023/04/12 09:19:55;;;;;;;12.02;2.70;;;9.90;91.10;;;;;;5005351;28;20111;-81
2023/04/12 09:22:44;;;;;;;9.63;2.75;;;10.10;91.20;;;;;;5005796;28;20424;-81
2023/04/12 09:25:13;;;;;;;14.02;3.22;;;10.30;91.30;;;;;;5022273;28;20040;-81
2023/04/12 09:27:53;;;;;;;13.95;3.00;;;10.40;89.30;;;;;;5021341;28;20178;-80
2023/04/12 09:30:19;;;;;;;10.20;2.90;;;10.50;88.80;;;;;;4989533;28;20119;-82
2023/04/12 09:32:48;;;;;;;17.52;2.88;;;10.50;87.30;;;;;;5005085;28;20043;-80
2023/04/12 09:35:14;;;;;;;11.07;2.90;;;10.60;86.60;;;;;;5038162;28;20099;-81
2023/04/12 09:37:40;;;;;;;10.32;2.60;;;10.70;85.10;;;;;;5038259;28;20443;-80
2023/04/12 09:40:08;;;;;;;12.40;2.70;;;10.90;85.50;;;;;;5021537;28;20045;-79
2023/04/12 09:42:54;;;;;;;8.93;2.55;;;11.00;85.40;;;;;;5038083;28;20045;-81
2023/04/12 09:45:23;;;;;;;10.20;2.55;;;11.00;83.90;;;;;;5037639;28;20055;-81
2023/04/12 09:47:48;;;;;;;9.50;2.60;;;11.20;82.80;;;;;;5004931;28;20488;-81
2023/04/12 09:50:26;;;;;;;11.38;3.00;;;11.20;82.40;;;;;;5037840;28;20048;-80
2023/04/12 09:52:55;;;;;;;12.35;4.20;;;11.20;81.80;;;;;;5037668;28;20135;-80
2023/04/12 09:55:22;;;;;;;15.25;3.15;;;11.20;81.70;;;;;;5003910;28;20041;-81
2023/04/12 09:57:50;;;;;;;13.40;2.92;;;11.20;81.70;;;;;;5021147;28;20044;-82
2023/04/12 10:00:17;;;;;;;11.25;3.13;;;11.20;82.00;;;;;;5037095;28;20106;-82
2023/04/12 10:02:45;;;;;;;12.15;2.97;;;11.10;81.90;;;;;;4988437;28;20037;-81
2023/04/12 10:05:13;;;;;;;15.85;3.50;;;11.10;81.40;;;;;;5004394;28;20049;-81
2023/04/12 10:07:42;;;;;;;12.55;3.63;;;11.10;81.20;;;;;;5020239;28;20573;-81
2023/04/12 10:10:11;;;;;;;14.30;2.97;;;11.20;81.40;;;;;;5020332;28;20621;-83
2023/04/12 10:12:41;;;;;;;11.63;3.53;;;11.30;80.20;;;;;;4988464;28;20041;-82
2023/04/12 10:15:12;;;;;;;10.98;3.95;;;11.50;80.20;;;;;;5004203;28;20495;-81
2023/04/12 10:17:54;;;;;;;18.83;3.47;;;11.70;79.50;;;;;;5004365;28;20041;-81
2023/04/12 10:20:21;;;;;;;13.85;3.28;;;11.90;79.10;;;;;;5011565;28;20041;-80
2023/04/12 10:22:48;;;;;;;11.90;2.97;;;12.10;77.90;;;;;;5005940;28;20065;-79
2023/04/12 10:25:20;;;;;;;13.05;2.60;;;12.30;77.50;;;;;;5001600;28;20369;-81
2023/04/12 10:27:47;;;;;;;14.52;2.67;;;12.40;77.00;;;;;;5010913;28;20425;-83
2023/04/12 10:30:29;;;;;;;10.30;2.97;;;12.50;76.80;;;;;;5001613;28;20048;-80
2023/04/12 10:33:01;;;;;;;16.25;3.78;;;12.50;76.50;;;;;;4991857;28;20045;-81
2023/04/12 10:35:27;;;;;;;10.13;2.53;;;12.50;76.50;;;;;;5005652;28;20048;-81
2023/04/12 10:38:01;;;;;;;11.40;2.08;;;12.50;76.30;;;;;;5022132;28;20048;-82
2023/04/12 10:40:30;;;;;;;10.68;2.92;;;12.30;75.80;;;;;;5018164;28;20052;-81
2023/04/12 10:43:17;;;;;;;11.38;3.15;;;12.30;75.90;;;;;;5019533;28;20084;-80
2023/04/12 10:45:44;;;;;;;13.40;2.85;;;12.20;74.80;;;;;;5020181;28;20384;-78
2023/04/12 10:48:35;;;;;;;9.88;2.88;;;12.20;75.10;;;;;;5008382;28;20052;-80
2023/04/12 10:51:23;;;;;;;11.13;2.95;;;12.10;74.70;;;;;;5000677;28;20044;-82
2023/04/12 10:53:50;;;;;;;10.52;2.75;;;12.00;75.00;;;;;;5022769;28;20053;-82
2023/04/12 10:56:31;;;;;;;14.82;2.63;;;12.00;75.10;;;;;;5016604;28;20041;-82
2023/04/12 10:58:58;;;;;;;9.52;2.70;;;11.90;74.00;;;;;;5000732;28;20171;-79
2023/04/12 11:01:24;;;;;;;11.02;3.30;;;11.90;74.70;;;;;;4988450;28;20177;-81
2023/04/12 11:04:06;;;;;;;13.57;2.80;;;11.90;75.20;;;;;;5005933;28;20056;-82
2023/04/12 11:06:51;;;;;;;14.20;3.78;;;11.90;74.60;;;;;;5019841;28;20112;-79
2023/04/12 11:09:24;;;;;;;15.20;3.60;;;11.70;74.70;;;;;;5002641;28;20526;-81
2023/04/12 11:11:57;;;;;;;9.60;2.40;;;11.70;75.30;;;;;;4986262;28;20074;-79
2023/04/12 11:14:28;;;;;;;8.63;2.42;;;11.80;75.50;;;;;;4989406;28;20053;-81
2023/04/12 11:17:14;;;;;;;8.13;3.33;;;11.70;75.90;;;;;;5002520;28;20147;-79
2023/04/12 11:19:50;;;;;;;9.07;3.33;;;11.60;76.80;;;;;;4992172;28;20111;-78
2023/04/12 11:22:18;;;;;;;11.60;2.33;;;11.70;76.90;;;;;;5028509;28;20059;-79
2023/04/12 11:24:52;;;;;;;10.73;2.60;;;11.60;76.10;;;;;;5026783;28;20068;-81
2023/04/12 11:27:20;;;;;;;12.55;3.13;;;11.60;76.70;;;;;;5006847;28;20112;-77
2023/04/12 11:29:54;;;;;;;17.42;3.30;;;11.70;77.20;;;;;;5023201;28;20148;-79
2023/04/12 11:32:21;;;;;;;;;;;11.80;77.10;;;;;;5006956;28;20045;-78
2023/04/12 11:34:47;;;;;;;12.48;2.63;;;12.10;76.50;;;;;;5020788;28;19917;-78
2023/04/12 11:37:13;;;;;;;12.68;2.75;;;12.30;76.70;;;;;;5004502;28;20041;-82
2023/04/12 11:39:44;;;;;;;16.25;3.22;;;12.50;76.60;;;;;;5003879;28;20131;-80
2023/04/12 11:42:28;;;;;;;11.40;2.63;;;12.40;76.40;;;;;;5015310;28;20556;-81
2023/04/12 11:44:55;;;;;;;11.85;2.97;;;12.40;75.90;;;;;;4984690;28;20088;-79
2023/04/12 11:47:22;;;;;;;7.68;2.35;;;12.50;76.00;;;;;;5002196;28;20554;-79
2023/04/12 11:49:56;;;;;;;13.73;2.97;;;12.70;75.10;;;;;;4993327;28;20044;-80
2023/04/12 11:52:30;;;;;;;12.20;3.25;;;12.70;73.60;;;;;;5022964;28;20041;-79
2023/04/12 11:55:03;;;;;;;8.45;2.80;;;12.90;72.40;;;;;;5022199;28;20561;-81
2023/04/12 11:57:29;;;;;;;16.93;2.73;;;13.00;71.50;;;;;;4999524;28;20056;-81
2023/04/12 11:59:57;;;;;;;9.93;2.78;;;13.00;70.80;;;;;;5001471;28;20234;-80
2023/04/12 12:02:25;;;;;;;11.43;2.15;;;13.10;70.10;;;;;;5019653;28;20084;-82
2023/04/12 12:04:51;;;;;;;8.35;2.00;;;13.10;71.30;;;;;;5001104;28;20037;-80
2023/04/12 12:07:18;;;;;;;9.40;2.47;;;13.10;70.30;;;;;;4999001;28;20489;-79
2023/04/12 12:09:45;;;;;;;12.38;1.95;;;13.30;69.70;;;;;;5000729;28;20045;-79
2023/04/12 12:12:12;;;;;;;10.45;2.38;;;13.30;68.60;;;;;;5017072;28;20470;-80
2023/04/12 12:14:39;;;;;;;11.05;2.80;;;13.20;68.40;;;;;;5002326;28;20048;-81
2023/04/12 12:17:13;;;;;;;10.85;2.22;;;13.40;67.90;;;;;;5015579;28;20485;-81
2023/04/12 12:19:40;;;;;;;10.35;3.13;;;13.50;68.00;;;;;;4982245;28;20575;-80
2023/04/12 12:22:20;;;;;;;12.38;2.53;;;13.70;66.10;;;;;;5018197;28;20575;-81
2023/04/12 12:24:58;;;;;;;8.40;2.63;;;13.90;65.10;;;;;;5000383;28;20044;-81
2023/04/12 12:27:33;;;;;;;8.82;2.38;;;13.90;63.80;;;;;;5003083;28;20068;-81
2023/04/12 12:30:01;;;;;;;7.72;2.30;;;14.00;63.60;;;;;;4985057;28;20061;-80
2023/04/12 12:32:35;;;;;;;10.15;1.80;;;14.00;62.80;;;;;;5002151;28;20073;-81
2023/04/12 12:35:02;;;;;;;9.38;1.92;;;14.00;62.80;;;;;;5002554;28;20042;-82
2023/04/12 12:37:29;;;;;;;6.95;2.13;;;14.30;62.20;;;;;;4980993;28;20476;-80
2023/04/12 12:40:15;;;;;;;11.27;1.83;;;14.00;61.70;;;;;;4993481;28;20080;-81
2023/04/12 12:42:54;;;;;;;8.90;2.33;;;13.70;62.30;;;;;;5000941;28;20051;-80
2023/04/12 12:45:44;;;;;;;6.60;1.42;;;13.60;60.40;;;;;;5017589;28;20076;-80
2023/04/12 12:48:10;;;;;;;7.65;2.10;;;13.50;61.20;;;;;;4979942;28;20045;-81
2023/04/12 12:50:36;;;;;;;5.25;1.45;;;13.50;62.20;;;;;;4991680;28;20064;-80
2023/04/12 12:53:03;;;;;;;9.45;2.38;;;13.40;63.60;;;;;;4989742;28;20048;-80
2023/04/12 12:55:29;;;;;;;5.22;1.73;;;13.50;62.70;;;;;;4999760;28;20222;-81
2023/04/12 12:57:56;;;;;;;8.52;2.67;;;13.30;62.00;;;;;;4975018;28;21005;-79
2023/04/12 13:00:24;;;;;;;10.27;2.03;;;13.10;62.00;;;;;;4981252;28;20050;-79
2023/04/12 13:02:51;;;;;;;4.95;1.92;;;13.00;63.80;;;;;;4989214;28;20049;-83